sensor_id;sensor_type;location;lat;lon;timestamp;P1;durP1;ratioP1;P2;durP2;ratioP2
13590;SDS011;6866;50.778;7.206;2023-07-13T00:00:23;8.55;;;1.50;;
13590;SDS011;6866;50.778;7.206;2023-07-13T00:02:48;7.57;;;1.45;;
13590;SDS011;6866;50.778;7.206;2023-07-13T00:05:14;6.88;;;1.33;;
13590;SDS011;6866;50.778;7.206;2023-07-13T00:07:39;6.35;;;1.27;;
13590;SDS011;6866;50.778;7.206;2023-07-13T00:10:05;9.50;;;1.40;;
13590;SDS011;6866;50.778;7.206;2023-07-13T00:12:34;6.53;;;1.35;;
13590;SDS011;6866;50.778;7.206;2023-07-13T00:15:03;6.40;;;1.52;;
13590;SDS011;6866;50.778;7.206;2023-07-13T00:17:31;6.50;;;1.40;;
13590;SDS011;6866;50.778;7.206;2023-07-13T00:19:57;5.75;;;1.42;;
13590;SDS011;6866;50.778;7.206;2023-07-13T00:22:23;8.77;;;1.63;;
13590;SDS011;6866;50.778;7.206;2023-07-13T00:24:50;5.15;;;1.20;;
13590;SDS011;6866;50.778;7.206;2023-07-13T00:27:16;9.38;;;1.52;;
13590;SDS011;6866;50.778;7.206;2023-07-13T00:29:43;4.90;;;1.40;;
13590;SDS011;6866;50.778;7.206;2023-07-13T00:32:09;3.78;;;1.30;;
13590;SDS011;6866;50.778;7.206;2023-07-13T00:34:36;12.40;;;1.70;;
13590;SDS011;6866;50.778;7.206;2023-07-13T00:37:02;9.00;;;1.55;;
13590;SDS011;6866;50.778;7.206;2023-07-13T00:39:28;5.18;;;1.45;;
13590;SDS011;6866;50.778;7.206;2023-07-13T00:41:53;6.40;;;1.27;;
13590;SDS011;6866;50.778;7.206;2023-07-13T00:44:19;7.68;;;1.58;;
13590;SDS011;6866;50.778;7.206;2023-07-13T00:46:48;6.50;;;1.60;;
13590;SDS011;6866;50.778;7.206;2023-07-13T00:49:15;6.72;;;1.40;;
13590;SDS011;6866;50.778;7.206;2023-07-13T00:51:50;9.35;;;1.50;;
13590;SDS011;6866;50.778;7.206;2023-07-13T00:54:21;8.40;;;1.63;;
13590;SDS011;6866;50.778;7.206;2023-07-13T00:56:50;7.40;;;1.50;;
13590;SDS011;6866;50.778;7.206;2023-07-13T00:59:18;7.18;;;1.50;;
13590;SDS011;6866;50.778;7.206;2023-07-13T01:04:20;7.60;;;1.50;;
13590;SDS011;6866;50.778;7.206;2023-07-13T01:06:48;6.05;;;1.33;;
13590;SDS011;6866;50.778;7.206;2023-07-13T01:09:14;4.40;;;1.30;;
13590;SDS011;6866;50.778;7.206;2023-07-13T01:11:40;6.18;;;1.63;;
13590;SDS011;6866;50.778;7.206;2023-07-13T01:14:06;5.30;;;1.40;;
13590;SDS011;6866;50.778;7.206;2023-07-13T01:16:32;5.97;;;1.25;;
13590;SDS011;6866;50.778;7.206;2023-07-13T01:18:59;5.38;;;1.30;;
13590;SDS011;6866;50.778;7.206;2023-07-13T01:21:27;5.82;;;1.35;;
13590;SDS011;6866;50.778;7.206;2023-07-13T01:23:53;5.25;;;1.50;;
13590;SDS011;6866;50.778;7.206;2023-07-13T01:26:19;7.10;;;1.20;;
13590;SDS011;6866;50.778;7.206;2023-07-13T01:28:44;6.78;;;1.20;;
13590;SDS011;6866;50.778;7.206;2023-07-13T01:31:10;5.75;;;1.42;;
13590;SDS011;6866;50.778;7.206;2023-07-13T01:33:36;6.28;;;1.30;;
13590;SDS011;6866;50.778;7.206;2023-07-13T01:36:04;4.20;;;1.27;;
13590;SDS011;6866;50.778;7.206;2023-07-13T01:38:31;6.50;;;1.67;;
13590;SDS011;6866;50.778;7.206;2023-07-13T01:40:59;4.22;;;1.35;;
13590;SDS011;6866;50.778;7.206;2023-07-13T01:43:24;6.55;;;1.65;;
13590;SDS011;6866;50.778;7.206;2023-07-13T01:45:50;4.90;;;0.98;;
13590;SDS011;6866;50.778;7.206;2023-07-13T01:48:16;4.93;;;1.10;;
13590;SDS011;6866;50.778;7.206;2023-07-13T01:50:41;5.53;;;1.52;;
13590;SDS011;6866;50.778;7.206;2023-07-13T01:53:07;4.93;;;1.35;;
13590;SDS011;6866;50.778;7.206;2023-07-13T01:55:33;10.27;;;1.55;;
13590;SDS011;6866;50.778;7.206;2023-07-13T01:57:59;5.72;;;1.50;;
13590;SDS011;6866;50.778;7.206;2023-07-13T02:00:24;5.53;;;1.30;;
13590;SDS011;6866;50.778;7.206;2023-07-13T02:02:50;7.82;;;1.48;;
13590;SDS011;6866;50.778;7.206;2023-07-13T02:05:16;6.95;;;1.67;;
13590;SDS011;6866;50.778;7.206;2023-07-13T02:07:42;5.70;;;1.58;;
13590;SDS011;6866;50.778;7.206;2023-07-13T02:10:08;4.72;;;1.35;;
13590;SDS011;6866;50.778;7.206;2023-07-13T02:12:35;6.45;;;1.45;;
13590;SDS011;6866;50.778;7.206;2023-07-13T02:15:01;5.40;;;1.45;;
13590;SDS011;6866;50.778;7.206;2023-07-13T02:17:27;8.30;;;1.67;;
13590;SDS011;6866;50.778;7.206;2023-07-13T02:19:53;5.93;;;1.50;;
13590;SDS011;6866;50.778;7.206;2023-07-13T02:22:19;5.20;;;1.60;;
13590;SDS011;6866;50.778;7.206;2023-07-13T02:24:45;4.78;;;1.20;;
13590;SDS011;6866;50.778;7.206;2023-07-13T02:27:10;6.93;;;1.80;;
13590;SDS011;6866;50.778;7.206;2023-07-13T02:29:36;5.47;;;1.38;;
13590;SDS011;6866;50.778;7.206;2023-07-13T02:32:02;4.45;;;1.70;;
13590;SDS011;6866;50.778;7.206;2023-07-13T02:34:27;8.73;;;1.77;;
13590;SDS011;6866;50.778;7.206;2023-07-13T02:36:53;8.90;;;1.40;;
13590;SDS011;6866;50.778;7.206;2023-07-13T02:39:19;4.30;;;1.23;;
13590;SDS011;6866;50.778;7.206;2023-07-13T02:41:44;5.30;;;1.35;;
13590;SDS011;6866;50.778;7.206;2023-07-13T02:44:12;6.85;;;1.50;;
13590;SDS011;6866;50.778;7.206;2023-07-13T02:46:38;4.78;;;1.42;;
13590;SDS011;6866;50.778;7.206;2023-07-13T02:49:04;7.78;;;1.50;;
13590;SDS011;6866;50.778;7.206;2023-07-13T02:51:30;8.38;;;1.77;;
13590;SDS011;6866;50.778;7.206;2023-07-13T02:53:58;6.07;;;1.60;;
13590;SDS011;6866;50.778;7.206;2023-07-13T02:56:28;9.95;;;1.80;;
13590;SDS011;6866;50.778;7.206;2023-07-13T02:58:56;5.10;;;1.40;;
13590;SDS011;6866;50.778;7.206;2023-07-13T03:01:22;5.22;;;1.60;;
13590;SDS011;6866;50.778;7.206;2023-07-13T03:03:49;4.13;;;1.30;;
13590;SDS011;6866;50.778;7.206;2023-07-13T03:06:15;9.07;;;1.48;;
13590;SDS011;6866;50.778;7.206;2023-07-13T03:08:41;4.28;;;1.60;;
13590;SDS011;6866;50.778;7.206;2023-07-13T03:11:09;4.95;;;1.40;;
13590;SDS011;6866;50.778;7.206;2023-07-13T03:13:38;6.80;;;1.70;;
13590;SDS011;6866;50.778;7.206;2023-07-13T03:16:05;9.10;;;1.55;;
13590;SDS011;6866;50.778;7.206;2023-07-13T03:18:31;5.40;;;1.52;;
13590;SDS011;6866;50.778;7.206;2023-07-13T03:20:57;6.40;;;1.63;;
13590;SDS011;6866;50.778;7.206;2023-07-13T03:23:23;6.72;;;1.60;;
13590;SDS011;6866;50.778;7.206;2023-07-13T03:25:49;4.40;;;1.42;;
13590;SDS011;6866;50.778;7.206;2023-07-13T03:28:15;5.03;;;1.50;;
13590;SDS011;6866;50.778;7.206;2023-07-13T03:30:41;7.03;;;1.48;;
13590;SDS011;6866;50.778;7.206;2023-07-13T03:33:07;4.82;;;1.35;;
13590;SDS011;6866;50.778;7.206;2023-07-13T03:35:33;4.22;;;1.33;;
13590;SDS011;6866;50.778;7.206;2023-07-13T03:38:00;4.93;;;1.48;;
13590;SDS011;6866;50.778;7.206;2023-07-13T03:40:26;7.57;;;1.58;;
13590;SDS011;6866;50.778;7.206;2023-07-13T03:42:52;8.18;;;1.63;;
13590;SDS011;6866;50.778;7.206;2023-07-13T03:45:18;7.03;;;1.55;;
13590;SDS011;6866;50.778;7.206;2023-07-13T03:47:44;6.68;;;1.30;;
13590;SDS011;6866;50.778;7.206;2023-07-13T03:50:10;4.53;;;1.25;;
13590;SDS011;6866;50.778;7.206;2023-07-13T03:52:35;5.20;;;1.38;;
13590;SDS011;6866;50.778;7.206;2023-07-13T03:55:01;4.65;;;1.30;;
13590;SDS011;6866;50.778;7.206;2023-07-13T03:57:26;6.35;;;1.42;;
13590;SDS011;6866;50.778;7.206;2023-07-13T03:59:52;4.78;;;1.45;;
13590;SDS011;6866;50.778;7.206;2023-07-13T04:02:18;5.97;;;1.23;;
13590;SDS011;6866;50.778;7.206;2023-07-13T04:04:43;5.03;;;1.27;;
13590;SDS011;6866;50.778;7.206;2023-07-13T04:07:09;8.68;;;1.30;;
13590;SDS011;6866;50.778;7.206;2023-07-13T04:09:35;4.60;;;1.10;;
13590;SDS011;6866;50.778;7.206;2023-07-13T04:12:01;6.82;;;1.45;;
13590;SDS011;6866;50.778;7.206;2023-07-13T04:14:26;8.23;;;1.65;;
13590;SDS011;6866;50.778;7.206;2023-07-13T04:16:52;5.25;;;1.20;;
13590;SDS011;6866;50.778;7.206;2023-07-13T04:19:19;5.45;;;1.48;;
13590;SDS011;6866;50.778;7.206;2023-07-13T04:21:45;8.15;;;1.48;;
13590;SDS011;6866;50.778;7.206;2023-07-13T04:24:11;6.15;;;1.23;;
13590;SDS011;6866;50.778;7.206;2023-07-13T04:26:36;6.15;;;1.42;;
13590;SDS011;6866;50.778;7.206;2023-07-13T04:29:03;8.15;;;1.40;;
13590;SDS011;6866;50.778;7.206;2023-07-13T04:31:29;6.03;;;1.50;;
13590;SDS011;6866;50.778;7.206;2023-07-13T04:33:55;7.80;;;1.70;;
13590;SDS011;6866;50.778;7.206;2023-07-13T04:36:21;7.70;;;1.40;;
13590;SDS011;6866;50.778;7.206;2023-07-13T04:38:47;7.40;;;1.52;;
13590;SDS011;6866;50.778;7.206;2023-07-13T04:41:13;6.95;;;1.70;;
13590;SDS011;6866;50.778;7.206;2023-07-13T04:43:40;6.20;;;1.42;;
13590;SDS011;6866;50.778;7.206;2023-07-13T04:46:10;5.38;;;1.25;;
13590;SDS011;6866;50.778;7.206;2023-07-13T04:48:37;5.18;;;1.30;;
13590;SDS011;6866;50.778;7.206;2023-07-13T04:51:02;5.20;;;1.30;;
13590;SDS011;6866;50.778;7.206;2023-07-13T04:53:29;5.43;;;1.30;;
13590;SDS011;6866;50.778;7.206;2023-07-13T04:55:55;9.77;;;2.38;;
13590;SDS011;6866;50.778;7.206;2023-07-13T04:58:21;6.07;;;1.45;;
13590;SDS011;6866;50.778;7.206;2023-07-13T05:00:47;6.45;;;1.38;;
13590;SDS011;6866;50.778;7.206;2023-07-13T05:03:14;5.07;;;1.48;;
13590;SDS011;6866;50.778;7.206;2023-07-13T05:05:39;5.80;;;1.63;;
13590;SDS011;6866;50.778;7.206;2023-07-13T05:08:05;4.35;;;1.42;;
13590;SDS011;6866;50.778;7.206;2023-07-13T05:10:32;4.97;;;1.40;;
13590;SDS011;6866;50.778;7.206;2023-07-13T05:12:58;7.15;;;1.50;;
13590;SDS011;6866;50.778;7.206;2023-07-13T05:15:23;6.70;;;1.40;;
13590;SDS011;6866;50.778;7.206;2023-07-13T05:17:50;7.82;;;1.50;;
13590;SDS011;6866;50.778;7.206;2023-07-13T05:20:16;7.45;;;1.60;;
13590;SDS011;6866;50.778;7.206;2023-07-13T05:22:42;6.82;;;1.40;;
13590;SDS011;6866;50.778;7.206;2023-07-13T05:25:08;6.28;;;1.42;;
13590;SDS011;6866;50.778;7.206;2023-07-13T05:27:35;5.25;;;1.45;;
13590;SDS011;6866;50.778;7.206;2023-07-13T05:30:01;7.82;;;1.58;;
13590;SDS011;6866;50.778;7.206;2023-07-13T05:32:28;5.78;;;1.63;;
13590;SDS011;6866;50.778;7.206;2023-07-13T05:34:54;5.10;;;1.30;;
13590;SDS011;6866;50.778;7.206;2023-07-13T05:37:19;4.90;;;1.50;;
13590;SDS011;6866;50.778;7.206;2023-07-13T05:39:45;8.00;;;1.50;;
13590;SDS011;6866;50.778;7.206;2023-07-13T05:42:10;6.05;;;1.40;;
13590;SDS011;6866;50.778;7.206;2023-07-13T05:47:01;7.30;;;1.63;;
13590;SDS011;6866;50.778;7.206;2023-07-13T06:01:34;6.30;;;1.40;;
13590;SDS011;6866;50.778;7.206;2023-07-13T06:04:00;5.47;;;1.47;;
13590;SDS011;6866;50.778;7.206;2023-07-13T06:23:47;5.18;;;1.35;;
13590;SDS011;6866;50.778;7.206;2023-07-13T06:26:14;5.38;;;1.20;;
13590;SDS011;6866;50.778;7.206;2023-07-13T09:04:50;11.30;;;1.70;;
13590;SDS011;6866;50.778;7.206;2023-07-13T09:10:14;4.65;;;1.35;;
13590;SDS011;6866;50.778;7.206;2023-07-13T09:17:48;4.18;;;1.30;;
13590;SDS011;6866;50.778;7.206;2023-07-13T09:22:47;4.28;;;1.10;;
13590;SDS011;6866;50.778;7.206;2023-07-13T09:28:15;4.88;;;1.30;;
13590;SDS011;6866;50.778;7.206;2023-07-13T09:33:28;5.93;;;1.30;;
13590;SDS011;6866;50.778;7.206;2023-07-13T09:38:23;5.65;;;1.30;;
13590;SDS011;6866;50.778;7.206;2023-07-13T09:43:35;4.32;;;1.30;;
13590;SDS011;6866;50.778;7.206;2023-07-13T09:46:01;4.03;;;1.23;;
13590;SDS011;6866;50.778;7.206;2023-07-13T09:48:33;4.57;;;1.40;;
13590;SDS011;6866;50.778;7.206;2023-07-13T09:51:06;3.03;;;1.10;;
13590;SDS011;6866;50.778;7.206;2023-07-13T09:53:38;5.18;;;1.30;;
13590;SDS011;6866;50.778;7.206;2023-07-13T09:56:11;3.72;;;1.10;;
13590;SDS011;6866;50.778;7.206;2023-07-13T09:58:47;5.07;;;1.27;;
13590;SDS011;6866;50.778;7.206;2023-07-13T10:01:13;5.18;;;1.38;;
13590;SDS011;6866;50.778;7.206;2023-07-13T10:03:39;4.43;;;1.30;;
13590;SDS011;6866;50.778;7.206;2023-07-13T10:06:17;5.03;;;1.35;;
13590;SDS011;6866;50.778;7.206;2023-07-13T10:11:16;8.32;;;1.63;;
13590;SDS011;6866;50.778;7.206;2023-07-13T10:13:52;4.95;;;1.30;;
13590;SDS011;6866;50.778;7.206;2023-07-13T10:16:27;4.45;;;1.40;;
13590;SDS011;6866;50.778;7.206;2023-07-13T10:18:58;4.55;;;1.42;;
13590;SDS011;6866;50.778;7.206;2023-07-13T10:21:35;6.38;;;1.65;;
13590;SDS011;6866;50.778;7.206;2023-07-13T10:24:19;5.75;;;1.45;;
13590;SDS011;6866;50.778;7.206;2023-07-13T10:26:57;5.50;;;1.50;;
13590;SDS011;6866;50.778;7.206;2023-07-13T10:29:44;4.25;;;1.30;;
13590;SDS011;6866;50.778;7.206;2023-07-13T10:34:37;5.60;;;1.40;;
13590;SDS011;6866;50.778;7.206;2023-07-13T10:37:05;5.93;;;1.40;;
13590;SDS011;6866;50.778;7.206;2023-07-13T10:39:40;6.95;;;1.50;;
13590;SDS011;6866;50.778;7.206;2023-07-13T10:42:06;6.75;;;1.60;;
13590;SDS011;6866;50.778;7.206;2023-07-13T10:44:40;5.70;;;1.50;;
13590;SDS011;6866;50.778;7.206;2023-07-13T10:47:11;7.13;;;1.77;;
13590;SDS011;6866;50.778;7.206;2023-07-13T10:49:41;4.22;;;1.30;;
13590;SDS011;6866;50.778;7.206;2023-07-13T10:55:30;7.78;;;1.40;;
13590;SDS011;6866;50.778;7.206;2023-07-13T11:03:35;5.10;;;1.33;;
13590;SDS011;6866;50.778;7.206;2023-07-13T11:06:36;6.05;;;1.67;;
13590;SDS011;6866;50.778;7.206;2023-07-13T11:11:53;8.05;;;1.67;;
13590;SDS011;6866;50.778;7.206;2023-07-13T11:14:29;8.18;;;1.60;;
13590;SDS011;6866;50.778;7.206;2023-07-13T11:19:53;5.40;;;1.60;;
13590;SDS011;6866;50.778;7.206;2023-07-13T11:22:53;3.45;;;1.13;;
13590;SDS011;6866;50.778;7.206;2023-07-13T11:25:42;5.00;;;1.25;;
13590;SDS011;6866;50.778;7.206;2023-07-13T11:30:47;4.15;;;1.10;;
13590;SDS011;6866;50.778;7.206;2023-07-13T11:38:35;2.83;;;1.00;;
13590;SDS011;6866;50.778;7.206;2023-07-13T11:41:27;9.02;;;1.45;;
13590;SDS011;6866;50.778;7.206;2023-07-13T11:44:05;3.17;;;1.40;;
13590;SDS011;6866;50.778;7.206;2023-07-13T11:46:56;3.25;;;1.10;;
13590;SDS011;6866;50.778;7.206;2023-07-13T11:49:29;4.50;;;1.30;;
13590;SDS011;6866;50.778;7.206;2023-07-13T11:51:55;4.35;;;1.23;;
13590;SDS011;6866;50.778;7.206;2023-07-13T11:56:51;4.15;;;1.15;;
13590;SDS011;6866;50.778;7.206;2023-07-13T11:59:18;4.60;;;1.15;;
13590;SDS011;6866;50.778;7.206;2023-07-13T12:01:49;3.47;;;1.00;;
13590;SDS011;6866;50.778;7.206;2023-07-13T12:06:53;2.90;;;1.00;;
13590;SDS011;6866;50.778;7.206;2023-07-13T12:09:20;3.78;;;1.15;;
13590;SDS011;6866;50.778;7.206;2023-07-13T12:11:50;4.03;;;1.10;;
13590;SDS011;6866;50.778;7.206;2023-07-13T12:14:16;3.03;;;1.05;;
13590;SDS011;6866;50.778;7.206;2023-07-13T12:16:43;3.30;;;1.00;;
13590;SDS011;6866;50.778;7.206;2023-07-13T12:19:18;6.32;;;1.30;;
13590;SDS011;6866;50.778;7.206;2023-07-13T12:21:46;4.00;;;1.20;;
13590;SDS011;6866;50.778;7.206;2023-07-13T12:24:16;4.47;;;1.35;;
13590;SDS011;6866;50.778;7.206;2023-07-13T12:26:44;3.17;;;0.98;;
13590;SDS011;6866;50.778;7.206;2023-07-13T12:29:16;6.15;;;1.20;;
13590;SDS011;6866;50.778;7.206;2023-07-13T12:31:44;5.22;;;1.23;;
13590;SDS011;6866;50.778;7.206;2023-07-13T12:34:15;3.47;;;1.20;;
13590;SDS011;6866;50.778;7.206;2023-07-13T12:36:49;6.03;;;1.83;;
13590;SDS011;6866;50.778;7.206;2023-07-13T12:41:48;3.45;;;1.20;;
13590;SDS011;6866;50.778;7.206;2023-07-13T12:44:17;4.22;;;1.40;;
13590;SDS011;6866;50.778;7.206;2023-07-13T12:47:21;4.40;;;1.42;;
13590;SDS011;6866;50.778;7.206;2023-07-13T12:49:42;4.43;;;1.42;;
13590;SDS011;6866;50.778;7.206;2023-07-13T12:52:13;6.25;;;1.30;;
13590;SDS011;6866;50.778;7.206;2023-07-13T12:54:40;3.95;;;1.30;;
13590;SDS011;6866;50.778;7.206;2023-07-13T12:57:08;7.60;;;1.40;;
13590;SDS011;6866;50.778;7.206;2023-07-13T12:59:41;6.70;;;1.50;;
13590;SDS011;6866;50.778;7.206;2023-07-13T13:02:16;7.25;;;1.48;;
13590;SDS011;6866;50.778;7.206;2023-07-13T13:04:50;3.83;;;1.25;;
13590;SDS011;6866;50.778;7.206;2023-07-13T13:07:16;3.97;;;1.70;;
13590;SDS011;6866;50.778;7.206;2023-07-13T13:09:42;5.45;;;1.30;;
13590;SDS011;6866;50.778;7.206;2023-07-13T13:12:08;4.95;;;1.70;;
13590;SDS011;6866;50.778;7.206;2023-07-13T13:14:35;7.53;;;1.63;;
13590;SDS011;6866;50.778;7.206;2023-07-13T13:17:01;5.40;;;1.20;;
13590;SDS011;6866;50.778;7.206;2023-07-13T13:19:28;4.32;;;1.15;;
13590;SDS011;6866;50.778;7.206;2023-07-13T13:21:55;4.15;;;1.20;;
13590;SDS011;6866;50.778;7.206;2023-07-13T13:24:22;5.75;;;1.60;;
13590;SDS011;6866;50.778;7.206;2023-07-13T13:26:50;4.57;;;1.42;;
13590;SDS011;6866;50.778;7.206;2023-07-13T13:29:18;5.78;;;1.10;;
13590;SDS011;6866;50.778;7.206;2023-07-13T13:31:45;4.15;;;1.30;;
13590;SDS011;6866;50.778;7.206;2023-07-13T13:34:12;4.05;;;1.30;;
13590;SDS011;6866;50.778;7.206;2023-07-13T13:36:39;3.00;;;1.10;;
13590;SDS011;6866;50.778;7.206;2023-07-13T13:39:23;3.45;;;1.13;;
13590;SDS011;6866;50.778;7.206;2023-07-13T13:41:51;4.07;;;1.17;;
13590;SDS011;6866;50.778;7.206;2023-07-13T13:44:17;4.22;;;1.38;;
13590;SDS011;6866;50.778;7.206;2023-07-13T13:46:45;2.50;;;1.00;;
13590;SDS011;6866;50.778;7.206;2023-07-13T13:49:13;3.17;;;1.00;;
13590;SDS011;6866;50.778;7.206;2023-07-13T13:51:41;6.78;;;1.35;;
13590;SDS011;6866;50.778;7.206;2023-07-13T13:54:10;5.60;;;1.35;;
13590;SDS011;6866;50.778;7.206;2023-07-13T13:56:43;7.53;;;1.40;;
13590;SDS011;6866;50.778;7.206;2023-07-13T13:59:09;4.15;;;1.30;;
13590;SDS011;6866;50.778;7.206;2023-07-13T14:01:35;5.75;;;1.38;;
13590;SDS011;6866;50.778;7.206;2023-07-13T14:04:02;6.00;;;1.40;;
13590;SDS011;6866;50.778;7.206;2023-07-13T14:06:28;3.58;;;1.10;;
13590;SDS011;6866;50.778;7.206;2023-07-13T14:08:54;5.03;;;1.20;;
13590;SDS011;6866;50.778;7.206;2023-07-13T14:11:21;4.18;;;1.23;;
13590;SDS011;6866;50.778;7.206;2023-07-13T14:13:48;4.60;;;1.23;;
13590;SDS011;6866;50.778;7.206;2023-07-13T14:16:20;5.30;;;1.05;;
13590;SDS011;6866;50.778;7.206;2023-07-13T14:18:47;6.13;;;1.20;;
13590;SDS011;6866;50.778;7.206;2023-07-13T14:21:15;3.53;;;1.10;;
13590;SDS011;6866;50.778;7.206;2023-07-13T14:23:43;5.82;;;1.50;;
13590;SDS011;6866;50.778;7.206;2023-07-13T14:26:14;4.55;;;1.20;;
13590;SDS011;6866;50.778;7.206;2023-07-13T14:28:42;5.32;;;1.23;;
13590;SDS011;6866;50.778;7.206;2023-07-13T14:31:10;3.88;;;1.27;;
13590;SDS011;6866;50.778;7.206;2023-07-13T14:33:40;4.32;;;1.08;;
13590;SDS011;6866;50.778;7.206;2023-07-13T14:36:20;6.88;;;1.40;;
13590;SDS011;6866;50.778;7.206;2023-07-13T14:39:11;4.00;;;1.13;;
13590;SDS011;6866;50.778;7.206;2023-07-13T14:41:36;5.47;;;1.23;;
13590;SDS011;6866;50.778;7.206;2023-07-13T14:44:04;5.20;;;1.10;;
13590;SDS011;6866;50.778;7.206;2023-07-13T14:46:36;3.95;;;1.17;;
13590;SDS011;6866;50.778;7.206;2023-07-13T14:49:06;5.47;;;1.10;;
13590;SDS011;6866;50.778;7.206;2023-07-13T14:51:44;3.15;;;1.05;;
13590;SDS011;6866;50.778;7.206;2023-07-13T14:54:10;4.40;;;1.00;;
13590;SDS011;6866;50.778;7.206;2023-07-13T14:56:36;3.90;;;1.17;;
13590;SDS011;6866;50.778;7.206;2023-07-13T14:59:02;6.05;;;1.10;;
13590;SDS011;6866;50.778;7.206;2023-07-13T15:01:27;5.20;;;1.13;;
13590;SDS011;6866;50.778;7.206;2023-07-13T15:03:55;3.80;;;1.30;;
13590;SDS011;6866;50.778;7.206;2023-07-13T15:06:21;3.75;;;1.20;;
13590;SDS011;6866;50.778;7.206;2023-07-13T15:08:46;4.57;;;1.05;;
13590;SDS011;6866;50.778;7.206;2023-07-13T15:11:13;5.18;;;1.13;;
13590;SDS011;6866;50.778;7.206;2023-07-13T15:13:39;4.57;;;1.17;;
13590;SDS011;6866;50.778;7.206;2023-07-13T15:16:16;3.70;;;1.48;;
13590;SDS011;6866;50.778;7.206;2023-07-13T15:18:44;2.95;;;1.00;;
13590;SDS011;6866;50.778;7.206;2023-07-13T15:21:11;5.15;;;1.40;;
13590;SDS011;6866;50.778;7.206;2023-07-13T15:23:41;5.03;;;1.25;;
13590;SDS011;6866;50.778;7.206;2023-07-13T15:26:13;4.30;;;0.90;;
13590;SDS011;6866;50.778;7.206;2023-07-13T15:28:40;2.72;;;0.80;;
13590;SDS011;6866;50.778;7.206;2023-07-13T15:31:29;3.85;;;1.15;;
13590;SDS011;6866;50.778;7.206;2023-07-13T15:33:55;4.95;;;1.20;;
13590;SDS011;6866;50.778;7.206;2023-07-13T15:36:22;4.63;;;1.10;;
13590;SDS011;6866;50.778;7.206;2023-07-13T15:38:50;4.05;;;1.20;;
13590;SDS011;6866;50.778;7.206;2023-07-13T15:43:45;3.40;;;1.08;;
13590;SDS011;6866;50.778;7.206;2023-07-13T15:46:11;2.33;;;1.00;;
13590;SDS011;6866;50.778;7.206;2023-07-13T15:48:36;5.47;;;1.10;;
13590;SDS011;6866;50.778;7.206;2023-07-13T15:51:03;4.13;;;1.35;;
13590;SDS011;6866;50.778;7.206;2023-07-13T15:53:32;3.78;;;0.90;;
13590;SDS011;6866;50.778;7.206;2023-07-13T15:55:59;4.47;;;1.20;;
13590;SDS011;6866;50.778;7.206;2023-07-13T15:58:26;4.25;;;1.10;;
13590;SDS011;6866;50.778;7.206;2023-07-13T16:00:53;6.53;;;1.20;;
13590;SDS011;6866;50.778;7.206;2023-07-13T16:03:19;7.13;;;1.35;;
13590;SDS011;6866;50.778;7.206;2023-07-13T16:05:45;4.18;;;1.25;;
13590;SDS011;6866;50.778;7.206;2023-07-13T16:08:30;4.72;;;2.00;;
13590;SDS011;6866;50.778;7.206;2023-07-13T16:10:58;5.80;;;1.30;;
13590;SDS011;6866;50.778;7.206;2023-07-13T16:13:25;4.72;;;1.27;;
13590;SDS011;6866;50.778;7.206;2023-07-13T16:15:51;4.15;;;1.35;;
13590;SDS011;6866;50.778;7.206;2023-07-13T16:18:18;5.13;;;1.38;;
13590;SDS011;6866;50.778;7.206;2023-07-13T16:20:44;2.95;;;1.02;;
13590;SDS011;6866;50.778;7.206;2023-07-13T16:23:11;4.93;;;1.52;;
13590;SDS011;6866;50.778;7.206;2023-07-13T16:25:38;5.40;;;1.58;;
13590;SDS011;6866;50.778;7.206;2023-07-13T16:28:04;2.90;;;1.13;;
13590;SDS011;6866;50.778;7.206;2023-07-13T16:30:31;5.80;;;1.50;;
13590;SDS011;6866;50.778;7.206;2023-07-13T16:32:59;4.38;;;1.30;;
13590;SDS011;6866;50.778;7.206;2023-07-13T16:35:36;3.58;;;1.30;;
13590;SDS011;6866;50.778;7.206;2023-07-13T16:38:03;4.05;;;1.20;;
13590;SDS011;6866;50.778;7.206;2023-07-13T16:40:34;4.35;;;1.20;;
13590;SDS011;6866;50.778;7.206;2023-07-13T16:43:02;6.97;;;1.60;;
13590;SDS011;6866;50.778;7.206;2023-07-13T16:45:31;5.35;;;1.30;;
13590;SDS011;6866;50.778;7.206;2023-07-13T16:47:59;6.28;;;1.40;;
13590;SDS011;6866;50.778;7.206;2023-07-13T16:50:29;4.55;;;1.50;;
13590;SDS011;6866;50.778;7.206;2023-07-13T16:52:56;8.93;;;1.48;;
13590;SDS011;6866;50.778;7.206;2023-07-13T16:55:22;6.03;;;1.50;;
13590;SDS011;6866;50.778;7.206;2023-07-13T16:57:52;6.50;;;1.80;;
13590;SDS011;6866;50.778;7.206;2023-07-13T17:00:20;11.32;;;2.55;;
13590;SDS011;6866;50.778;7.206;2023-07-13T17:02:52;10.38;;;1.83;;
13590;SDS011;6866;50.778;7.206;2023-07-13T17:05:23;11.63;;;2.03;;
13590;SDS011;6866;50.778;7.206;2023-07-13T17:07:50;9.70;;;1.90;;
13590;SDS011;6866;50.778;7.206;2023-07-13T17:10:16;10.82;;;2.20;;
13590;SDS011;6866;50.778;7.206;2023-07-13T17:12:46;11.30;;;2.20;;
13590;SDS011;6866;50.778;7.206;2023-07-13T17:15:12;13.23;;;1.83;;
13590;SDS011;6866;50.778;7.206;2023-07-13T17:17:38;7.90;;;1.65;;
13590;SDS011;6866;50.778;7.206;2023-07-13T17:22:49;10.10;;;2.10;;
13590;SDS011;6866;50.778;7.206;2023-07-13T17:25:16;11.00;;;1.88;;
13590;SDS011;6866;50.778;7.206;2023-07-13T17:27:43;10.65;;;2.47;;
13590;SDS011;6866;50.778;7.206;2023-07-13T17:30:16;10.02;;;1.95;;
13590;SDS011;6866;50.778;7.206;2023-07-13T17:32:43;9.20;;;2.08;;
13590;SDS011;6866;50.778;7.206;2023-07-13T17:35:26;10.55;;;2.10;;
13590;SDS011;6866;50.778;7.206;2023-07-13T17:37:56;10.55;;;1.95;;
13590;SDS011;6866;50.778;7.206;2023-07-13T17:40:23;6.40;;;1.75;;
13590;SDS011;6866;50.778;7.206;2023-07-13T17:42:49;8.73;;;2.50;;
13590;SDS011;6866;50.778;7.206;2023-07-13T17:45:25;9.15;;;2.20;;
13590;SDS011;6866;50.778;7.206;2023-07-13T17:50:25;11.13;;;2.60;;
13590;SDS011;6866;50.778;7.206;2023-07-13T17:53:00;7.20;;;2.10;;
13590;SDS011;6866;50.778;7.206;2023-07-13T17:55:27;9.25;;;2.25;;
13590;SDS011;6866;50.778;7.206;2023-07-13T17:57:54;10.10;;;2.10;;
13590;SDS011;6866;50.778;7.206;2023-07-13T18:00:20;6.50;;;1.85;;
13590;SDS011;6866;50.778;7.206;2023-07-13T18:02:53;10.55;;;2.17;;
13590;SDS011;6866;50.778;7.206;2023-07-13T18:05:21;6.32;;;1.70;;
13590;SDS011;6866;50.778;7.206;2023-07-13T18:07:50;13.60;;;2.10;;
13590;SDS011;6866;50.778;7.206;2023-07-13T18:10:16;6.47;;;1.80;;
13590;SDS011;6866;50.778;7.206;2023-07-13T18:12:42;5.75;;;1.88;;
13590;SDS011;6866;50.778;7.206;2023-07-13T18:15:09;8.40;;;1.70;;
13590;SDS011;6866;50.778;7.206;2023-07-13T18:17:35;8.00;;;2.20;;
13590;SDS011;6866;50.778;7.206;2023-07-13T18:20:02;4.93;;;1.58;;
13590;SDS011;6866;50.778;7.206;2023-07-13T18:22:37;8.85;;;1.80;;
13590;SDS011;6866;50.778;7.206;2023-07-13T18:25:13;5.55;;;1.77;;
13590;SDS011;6866;50.778;7.206;2023-07-13T18:27:40;6.50;;;1.80;;
13590;SDS011;6866;50.778;7.206;2023-07-13T18:30:06;5.38;;;1.60;;
13590;SDS011;6866;50.778;7.206;2023-07-13T18:32:38;6.90;;;1.80;;
13590;SDS011;6866;50.778;7.206;2023-07-13T18:35:11;7.07;;;2.00;;
13590;SDS011;6866;50.778;7.206;2023-07-13T18:37:41;7.95;;;1.77;;
13590;SDS011;6866;50.778;7.206;2023-07-13T18:40:12;10.00;;;2.13;;
13590;SDS011;6866;50.778;7.206;2023-07-13T18:42:39;6.28;;;1.80;;
13590;SDS011;6866;50.778;7.206;2023-07-13T18:45:07;6.15;;;1.67;;
13590;SDS011;6866;50.778;7.206;2023-07-13T18:47:37;7.00;;;1.60;;
13590;SDS011;6866;50.778;7.206;2023-07-13T18:50:11;6.15;;;1.70;;
13590;SDS011;6866;50.778;7.206;2023-07-13T18:52:57;4.15;;;1.35;;
13590;SDS011;6866;50.778;7.206;2023-07-13T18:55:23;5.63;;;1.67;;
13590;SDS011;6866;50.778;7.206;2023-07-13T18:57:49;8.80;;;2.03;;
13590;SDS011;6866;50.778;7.206;2023-07-13T19:00:23;5.30;;;1.60;;
13590;SDS011;6866;50.778;7.206;2023-07-13T19:02:53;5.10;;;1.40;;
13590;SDS011;6866;50.778;7.206;2023-07-13T19:05:21;5.28;;;1.50;;
13590;SDS011;6866;50.778;7.206;2023-07-13T19:07:50;5.17;;;1.53;;
13590;SDS011;6866;50.778;7.206;2023-07-13T19:10:18;4.45;;;1.88;;
13590;SDS011;6866;50.778;7.206;2023-07-13T19:12:47;4.53;;;1.20;;
13590;SDS011;6866;50.778;7.206;2023-07-13T19:15:30;5.25;;;1.60;;
13590;SDS011;6866;50.778;7.206;2023-07-13T19:17:59;4.50;;;1.70;;
13590;SDS011;6866;50.778;7.206;2023-07-13T19:20:26;6.72;;;1.88;;
13590;SDS011;6866;50.778;7.206;2023-07-13T19:22:58;6.35;;;1.45;;